Time;durP1;ratioP1;P1;durP2;ratioP2;P2;SDS_P1;SDS_P2;PMS_P1;PMS_P2;Temp;Humidity;BMP_temperature;BMP_pressure;BME280_temperature;BME280_humidity;BME280_pressure;Samples;Min_cycle;Max_cycle;Signal;HPM_P1;HPM_P2
2022/09/10 00:00:42;;;;;;;6.40;2.50;;;14.40;99.90;;;;;;5054313;28;20293;-57
2022/09/10 00:03:11;;;;;;;8.30;2.50;;;14.40;99.90;;;;;;5054593;28;20228;-56
2022/09/10 00:05:41;;;;;;;5.27;2.63;;;14.40;99.90;;;;;;5054370;28;20358;-55
2022/09/10 00:08:07;;;;;;;4.90;2.40;;;14.50;99.90;;;;;;5054002;28;20206;-57
2022/09/10 00:10:38;;;;;;;5.80;2.60;;;14.50;99.90;;;;;;5054367;28;20206;-57
2022/09/10 00:13:05;;;;;;;7.10;2.50;;;14.60;99.90;;;;;;5054065;28;20205;-56
2022/09/10 00:15:31;;;;;;;3.63;1.87;;;14.50;99.90;;;;;;5053965;28;20237;-57
2022/09/10 00:17:58;;;;;;;4.83;2.40;;;14.60;99.90;;;;;;5053992;28;20205;-56
2022/09/10 00:20:26;;;;;;;5.63;2.10;;;14.60;99.90;;;;;;5054186;28;20621;-56
2022/09/10 00:22:53;;;;;;;5.57;2.10;;;14.60;99.90;;;;;;5054054;28;20255;-58
2022/09/10 00:25:20;;;;;;;2.23;1.90;;;14.60;99.90;;;;;;5053840;28;20230;-58
2022/09/10 00:27:46;;;;;;;3.23;2.00;;;14.60;99.90;;;;;;5053905;28;20247;-55
2022/09/10 00:30:14;;;;;;;6.13;2.40;;;14.60;99.90;;;;;;5053868;28;20206;-58
2022/09/10 00:32:40;;;;;;;5.50;2.33;;;14.60;99.90;;;;;;5054008;28;20653;-58
2022/09/10 00:35:07;;;;;;;3.93;2.00;;;14.60;99.90;;;;;;5053689;28;20279;-58
2022/09/10 00:37:36;;;;;;;3.07;2.27;;;14.60;99.90;;;;;;5053647;28;20206;-58
2022/09/10 00:40:03;;;;;;;6.20;2.43;;;14.50;99.90;;;;;;5054638;28;20205;-58
2022/09/10 00:42:30;;;;;;;5.40;2.60;;;14.50;99.90;;;;;;5054045;28;20205;-58
2022/09/10 00:45:00;;;;;;;6.23;2.60;;;14.50;99.90;;;;;;5053811;28;20222;-58
2022/09/10 00:47:32;;;;;;;5.73;2.50;;;14.60;99.90;;;;;;5053526;28;20618;-58
2022/09/10 00:50:04;;;;;;;4.43;2.30;;;14.50;99.90;;;;;;5053566;28;20300;-58
2022/09/10 00:52:32;;;;;;;5.73;2.60;;;14.50;99.90;;;;;;5053635;28;20205;-55
2022/09/10 00:55:00;;;;;;;4.70;2.60;;;14.50;99.90;;;;;;5053453;28;20244;-58
2022/09/10 00:57:28;;;;;;;8.13;2.47;;;14.50;99.90;;;;;;5053464;28;20206;-57
2022/09/10 00:59:59;;;;;;;4.17;2.40;;;14.50;99.90;;;;;;5053410;28;20210;-58
2022/09/10 01:02:26;;;;;;;3.70;2.83;;;14.50;99.90;;;;;;5053474;28;20205;-58
2022/09/10 01:04:55;;;;;;;8.47;2.70;;;14.50;99.90;;;;;;5053100;28;20796;-58
2022/09/10 01:07:22;;;;;;;5.33;2.83;;;14.50;99.90;;;;;;5052833;28;20217;-58
2022/09/10 01:09:49;;;;;;;3.33;2.40;;;14.40;99.90;;;;;;5053373;28;20235;-57
2022/09/10 01:12:31;;;;;;;4.50;2.70;;;14.40;99.90;;;;;;5053285;28;20210;-58
2022/09/10 01:15:08;;;;;;;3.90;1.97;;;14.50;99.90;;;;;;5052921;28;20230;-58
2022/09/10 01:17:44;;;;;;;5.13;2.10;;;14.50;99.90;;;;;;5052862;28;20296;-58
2022/09/10 01:20:44;;;;;;;5.27;1.70;;;14.50;99.90;;;;;;5053320;28;20216;-57
2022/09/10 01:23:42;;;;;;;4.17;1.70;;;14.60;99.90;;;;;;5053527;28;20678;-54
2022/09/10 01:26:21;;;;;;;5.50;1.70;;;14.50;99.90;;;;;;5053436;28;20641;-57
2022/09/10 01:28:56;;;;;;;2.67;1.60;;;14.60;99.90;;;;;;5053467;28;20235;-55
2022/09/10 01:31:27;;;;;;;3.90;1.50;;;14.60;99.90;;;;;;5053202;28;20205;-57
2022/09/10 01:34:01;;;;;;;5.83;1.90;;;14.60;99.90;;;;;;5053242;28;20205;-58
2022/09/10 01:36:32;;;;;;;7.30;2.07;;;14.60;99.90;;;;;;5052629;28;20320;-58
2022/09/10 01:39:00;;;;;;;5.80;1.73;;;14.60;99.90;;;;;;5053386;28;20209;-57
2022/09/10 01:41:28;;;;;;;7.17;2.10;;;14.50;99.90;;;;;;5053065;28;20209;-51
2022/09/10 01:43:56;;;;;;;3.87;2.10;;;14.40;99.90;;;;;;5052883;28;20626;-55
2022/09/10 01:46:38;;;;;;;4.27;2.50;;;14.40;99.90;;;;;;5052518;28;20636;-54
2022/09/10 01:49:17;;;;;;;5.27;2.37;;;14.40;99.90;;;;;;5052531;28;20209;-51
2022/09/10 01:52:08;;;;;;;8.57;3.10;;;14.40;99.90;;;;;;5052604;28;20205;-55
2022/09/10 01:54:47;;;;;;;9.83;2.93;;;14.40;99.90;;;;;;5052408;28;20229;-54
2022/09/10 01:57:26;;;;;;;4.77;2.30;;;14.40;99.90;;;;;;5052020;28;20614;-53
2022/09/10 02:00:02;;;;;;;3.37;2.33;;;14.40;99.90;;;;;;5052153;28;20271;-52
2022/09/10 02:02:32;;;;;;;6.93;2.37;;;14.40;99.90;;;;;;5052194;28;20255;-55
2022/09/10 02:05:01;;;;;;;2.60;2.37;;;14.40;99.90;;;;;;5051988;28;20785;-56
2022/09/10 02:07:30;;;;;;;4.27;2.67;;;14.30;99.90;;;;;;5051652;28;20201;-57
2022/09/10 02:09:59;;;;;;;5.37;2.40;;;14.40;99.90;;;;;;5052324;28;20235;-58
2022/09/10 02:12:25;;;;;;;4.97;3.10;;;14.30;99.90;;;;;;5051736;28;20214;-58
2022/09/10 02:14:54;;;;;;;7.30;3.03;;;14.30;99.90;;;;;;5052057;28;20643;-55
2022/09/10 02:17:29;;;;;;;6.87;2.80;;;14.30;99.90;;;;;;5051787;28;20232;-52
2022/09/10 02:19:57;;;;;;;7.80;2.90;;;14.40;99.90;;;;;;5051936;28;20235;-58
2022/09/10 02:22:25;;;;;;;6.03;2.50;;;14.30;99.90;;;;;;5052189;28;20315;-58
2022/09/10 02:24:52;;;;;;;5.13;3.00;;;14.30;99.90;;;;;;5051984;28;20233;-58
2022/09/10 02:27:18;;;;;;;4.93;2.93;;;14.30;99.90;;;;;;5051527;28;20206;-56
2022/09/10 02:29:45;;;;;;;6.23;2.50;;;14.30;99.90;;;;;;5052117;28;20629;-56
2022/09/10 02:32:12;;;;;;;5.03;2.87;;;14.30;99.90;;;;;;5051918;28;20255;-57
2022/09/10 02:34:40;;;;;;;4.37;2.50;;;14.30;99.90;;;;;;5051696;28;20329;-57
2022/09/10 02:37:06;;;;;;;4.10;2.50;;;14.30;99.90;;;;;;5051775;28;20279;-55
2022/09/10 02:39:34;;;;;;;3.70;2.10;;;14.30;99.90;;;;;;5052033;28;20205;-58
2022/09/10 02:42:00;;;;;;;2.60;2.10;;;14.40;99.90;;;;;;5054608;28;20209;-58
2022/09/10 02:44:28;;;;;;;6.13;2.30;;;14.30;99.90;;;;;;5054489;28;20720;-55
2022/09/10 02:46:54;;;;;;;7.67;2.20;;;14.30;99.90;;;;;;5052954;28;20576;-54
2022/09/10 02:49:21;;;;;;;3.73;2.60;;;14.40;99.90;;;;;;5051405;28;20216;-57
2022/09/10 02:51:50;;;;;;;5.27;2.17;;;14.30;99.90;;;;;;5051532;28;20672;-57
2022/09/10 02:54:18;;;;;;;2.57;2.20;;;14.30;99.90;;;;;;5051400;28;20205;-57
2022/09/10 02:56:47;;;;;;;2.83;1.97;;;14.30;99.90;;;;;;5051351;28;20229;-57
2022/09/10 02:59:14;;;;;;;2.70;1.97;;;14.30;99.90;;;;;;5051483;28;20209;-58
2022/09/10 03:01:40;;;;;;;6.07;2.20;;;14.30;99.90;;;;;;5051427;28;20713;-57
2022/09/10 03:04:07;;;;;;;4.17;2.40;;;14.30;99.90;;;;;;5051571;28;20264;-58
2022/09/10 03:06:34;;;;;;;4.57;2.97;;;14.30;99.90;;;;;;5051411;28;20273;-59
2022/09/10 03:09:02;;;;;;;5.60;2.43;;;14.30;99.90;;;;;;5051399;28;20696;-60
2022/09/10 03:11:28;;;;;;;3.80;2.70;;;14.30;99.90;;;;;;5051451;28;20210;-58
2022/09/10 03:13:55;;;;;;;6.53;2.30;;;14.20;99.90;;;;;;5051513;28;20814;-58
2022/09/10 03:16:22;;;;;;;5.03;2.80;;;14.30;99.90;;;;;;5050946;28;20287;-59
2022/09/10 03:18:50;;;;;;;6.57;2.87;;;14.30;99.90;;;;;;5051510;28;20395;-59
2022/09/10 03:21:19;;;;;;;5.50;2.80;;;14.30;99.90;;;;;;5051247;28;20210;-58
2022/09/10 03:23:48;;;;;;;6.27;3.27;;;14.30;99.90;;;;;;5052468;28;20205;-58
2022/09/10 03:26:18;;;;;;;5.57;2.93;;;14.30;99.90;;;;;;5054819;28;20226;-57
2022/09/10 03:28:45;;;;;;;4.90;3.20;;;14.30;99.90;;;;;;5054974;28;20210;-58
2022/09/10 03:31:13;;;;;;;6.90;3.10;;;14.40;99.90;;;;;;5054992;28;20205;-58
2022/09/10 03:33:40;;;;;;;5.90;3.57;;;14.40;99.90;;;;;;5055049;28;20202;-58
2022/09/10 03:36:08;;;;;;;5.80;3.60;;;14.30;99.90;;;;;;5054086;28;20226;-58
2022/09/10 03:38:34;;;;;;;7.93;3.67;;;14.30;99.90;;;;;;5055367;28;20267;-58
2022/09/10 03:41:01;;;;;;;5.23;4.23;;;14.30;99.90;;;;;;5054955;28;20210;-55
2022/09/10 03:43:30;;;;;;;3.93;3.53;;;14.30;99.90;;;;;;5054842;28;20205;-55
2022/09/10 03:45:57;;;;;;;8.47;4.10;;;14.30;99.90;;;;;;5054686;28;20225;-58
2022/09/10 03:48:23;;;;;;;5.93;3.93;;;14.30;99.90;;;;;;5054784;28;20210;-57
2022/09/10 03:50:50;;;;;;;6.80;3.90;;;14.30;99.90;;;;;;5054581;28;20232;-51
2022/09/10 03:53:18;;;;;;;7.67;4.73;;;14.30;99.90;;;;;;5054610;28;20300;-55
2022/09/10 03:55:46;;;;;;;8.90;5.23;;;14.30;99.90;;;;;;5054225;28;20225;-56
2022/09/10 03:58:13;;;;;;;12.13;8.33;;;14.30;99.90;;;;;;5054243;28;20214;-53
2022/09/10 04:00:41;;;;;;;6.57;5.03;;;14.30;99.90;;;;;;5054293;28;20251;-57
2022/09/10 04:03:09;;;;;;;7.07;5.40;;;14.30;99.90;;;;;;5054394;28;20206;-58
2022/09/10 04:05:39;;;;;;;7.67;5.33;;;14.20;99.90;;;;;;5054303;28;20233;-55
2022/09/10 04:08:06;;;;;;;9.20;5.70;;;14.20;99.90;;;;;;5054027;28;20233;-54
2022/09/10 04:10:33;;;;;;;8.57;6.17;;;14.20;99.90;;;;;;5054249;28;20563;-55
2022/09/10 04:12:59;;;;;;;8.27;6.30;;;14.20;99.90;;;;;;5054346;28;20220;-56
2022/09/10 04:15:26;;;;;;;10.93;6.13;;;14.20;99.90;;;;;;5054120;28;20222;-58
2022/09/10 04:17:54;;;;;;;10.23;6.33;;;14.20;99.90;;;;;;5053899;28;20205;-55
2022/09/10 04:20:22;;;;;;;8.43;5.60;;;14.20;99.90;;;;;;5054212;28;20216;-58
2022/09/10 04:22:50;;;;;;;9.27;5.93;;;14.20;99.90;;;;;;5053962;28;20222;-56
2022/09/10 04:25:17;;;;;;;10.63;6.10;;;14.20;99.90;;;;;;5054308;28;20568;-58
2022/09/10 04:27:44;;;;;;;10.13;7.13;;;14.20;99.90;;;;;;5053667;28;20690;-56
2022/09/10 04:30:12;;;;;;;10.50;6.70;;;14.10;99.90;;;;;;5053981;28;20217;-57
2022/09/10 04:32:39;;;;;;;13.00;8.17;;;14.10;99.90;;;;;;5053938;28;20205;-57
2022/09/10 04:35:08;;;;;;;10.67;6.70;;;14.10;99.90;;;;;;5053240;28;20229;-56
2022/09/10 04:37:35;;;;;;;9.27;7.10;;;14.10;99.90;;;;;;5053332;28;20252;-55
2022/09/10 04:40:02;;;;;;;15.20;8.20;;;14.10;99.90;;;;;;5053702;28;20213;-58
2022/09/10 04:42:30;;;;;;;13.23;8.57;;;14.10;99.90;;;;;;5053699;28;20858;-56
2022/09/10 04:44:57;;;;;;;10.90;8.10;;;14.10;99.90;;;;;;5053644;28;20233;-57
2022/09/10 04:47:24;;;;;;;12.40;9.23;;;14.10;99.90;;;;;;5053401;28;20255;-57
2022/09/10 04:49:51;;;;;;;15.70;9.23;;;14.10;99.90;;;;;;5053559;28;20560;-57
2022/09/10 04:52:21;;;;;;;13.77;9.00;;;14.10;99.90;;;;;;5053553;28;20256;-58
2022/09/10 04:54:48;;;;;;;15.23;8.87;;;14.20;99.90;;;;;;5053565;28;20668;-57
2022/09/10 04:57:14;;;;;;;18.90;10.67;;;14.20;99.90;;;;;;5053286;28;20229;-57
2022/09/10 04:59:42;;;;;;;16.27;9.93;;;14.10;99.90;;;;;;5053203;28;20622;-57
2022/09/10 05:02:09;;;;;;;14.67;9.80;;;14.10;99.90;;;;;;5053337;28;20209;-57
2022/09/10 05:04:36;;;;;;;13.90;9.87;;;14.20;99.90;;;;;;5052940;28;20256;-58
2022/09/10 05:07:02;;;;;;;14.43;9.60;;;14.20;99.90;;;;;;5053267;28;20296;-58
2022/09/10 05:09:32;;;;;;;13.10;9.43;;;14.20;99.90;;;;;;5053201;28;20205;-56
2022/09/10 05:11:59;;;;;;;18.07;10.53;;;14.20;99.90;;;;;;5053172;28;20692;-56
2022/09/10 05:14:26;;;;;;;14.77;9.33;;;14.20;99.90;;;;;;5052938;28;20205;-56
2022/09/10 05:16:54;;;;;;;20.83;10.30;;;14.20;99.90;;;;;;5052703;28;20222;-57
2022/09/10 05:19:20;;;;;;;21.83;10.60;;;14.20;99.90;;;;;;5052930;28;20212;-58
2022/09/10 05:21:48;;;;;;;17.33;10.17;;;14.20;99.90;;;;;;5053151;28;20255;-58
2022/09/10 05:24:15;;;;;;;14.77;9.70;;;14.30;99.90;;;;;;5052655;28;20205;-58
2022/09/10 05:26:45;;;;;;;19.60;10.17;;;14.20;99.90;;;;;;5052558;28;20263;-58
2022/09/10 05:29:12;;;;;;;16.47;9.23;;;14.20;99.90;;;;;;5052893;28;20248;-57
2022/09/10 05:31:39;;;;;;;13.67;9.27;;;14.20;99.90;;;;;;5052717;28;20229;-58
2022/09/10 05:34:07;;;;;;;13.80;9.97;;;14.20;99.90;;;;;;5052914;28;20212;-58
2022/09/10 05:36:34;;;;;;;16.37;9.83;;;14.20;99.90;;;;;;5052595;28;20228;-57
2022/09/10 05:39:02;;;;;;;14.73;9.60;;;14.20;99.90;;;;;;5052830;28;20217;-58
2022/09/10 05:41:29;;;;;;;17.13;9.40;;;14.10;99.90;;;;;;5052553;28;20231;-57
2022/09/10 05:43:57;;;;;;;14.53;9.20;;;14.10;99.90;;;;;;5052510;28;20209;-57
2022/09/10 05:46:24;;;;;;;13.67;9.10;;;14.10;99.90;;;;;;5051747;28;20267;-58
2022/09/10 05:48:52;;;;;;;18.60;9.37;;;14.10;99.90;;;;;;5052064;28;20213;-58
2022/09/10 05:51:19;;;;;;;20.60;9.67;;;14.10;99.90;;;;;;5052513;28;20205;-56
2022/09/10 05:53:46;;;;;;;16.23;9.47;;;14.10;99.90;;;;;;5052736;28;20210;-55
2022/09/10 05:56:13;;;;;;;16.33;10.07;;;14.20;99.90;;;;;;5051945;28;20782;-53
2022/09/10 05:58:40;;;;;;;16.70;9.90;;;14.10;99.90;;;;;;5052260;28;20212;-54
2022/09/10 06:01:08;;;;;;;14.53;9.80;;;14.20;99.90;;;;;;5041607;28;20296;-52
2022/09/10 06:03:34;;;;;;;16.37;9.93;;;14.20;99.90;;;;;;5051447;28;20279;-58
2022/09/10 06:06:01;;;;;;;16.30;10.27;;;14.20;99.90;;;;;;5051505;28;20241;-55
2022/09/10 06:08:28;;;;;;;13.83;9.83;;;14.30;99.90;;;;;;5051769;28;20210;-56
2022/09/10 06:10:56;;;;;;;18.00;9.50;;;14.20;99.90;;;;;;5051693;28;20255;-57
2022/09/10 06:13:23;;;;;;;17.00;9.77;;;14.20;99.90;;;;;;5052013;28;20263;-59
2022/09/10 06:15:50;;;;;;;17.17;9.37;;;14.20;99.90;;;;;;5049225;28;20245;-58
2022/09/10 06:18:20;;;;;;;16.70;9.87;;;14.20;99.90;;;;;;5052702;28;20332;-57
2022/09/10 06:20:47;;;;;;;15.17;9.50;;;14.30;99.90;;;;;;5050490;28;20259;-58
2022/09/10 06:23:15;;;;;;;18.20;9.53;;;14.30;99.90;;;;;;5049485;28;20205;-58
2022/09/10 06:25:43;;;;;;;14.57;9.33;;;14.30;99.90;;;;;;5047658;28;20235;-59
2022/09/10 06:28:11;;;;;;;18.07;9.97;;;14.40;99.90;;;;;;5048552;28;20240;-57
2022/09/10 06:30:38;;;;;;;14.70;8.83;;;14.40;99.90;;;;;;5050494;28;20315;-58
2022/09/10 06:33:05;;;;;;;15.27;9.57;;;14.50;99.90;;;;;;5050483;28;20301;-60
2022/09/10 06:35:34;;;;;;;16.13;8.97;;;14.50;99.90;;;;;;5050202;28;20230;-56
2022/09/10 06:38:01;;;;;;;16.23;8.93;;;14.50;99.90;;;;;;5049595;28;20236;-58
2022/09/10 06:40:28;;;;;;;14.57;8.93;;;14.50;99.90;;;;;;5048311;28;20749;-58
2022/09/10 06:42:55;;;;;;;21.27;10.33;;;14.60;99.90;;;;;;5049532;28;20214;-57
2022/09/10 06:45:22;;;;;;;15.83;9.07;;;14.60;99.90;;;;;;5047442;28;20240;-56
2022/09/10 06:47:49;;;;;;;13.23;8.73;;;14.50;99.90;;;;;;5050161;28;20210;-58
2022/09/10 06:50:16;;;;;;;13.50;8.80;;;14.50;99.90;;;;;;5051179;28;20206;-58
2022/09/10 06:52:44;;;;;;;14.40;8.47;;;14.50;99.90;;;;;;5050592;28;20205;-59
2022/09/10 06:55:11;;;;;;;13.00;8.50;;;14.50;99.90;;;;;;5050948;28;20226;-59
2022/09/10 06:57:38;;;;;;;14.80;8.37;;;14.60;99.90;;;;;;5050716;28;20321;-59
2022/09/10 07:00:06;;;;;;;14.17;8.17;;;14.60;99.90;;;;;;5053519;28;20214;-58
2022/09/10 07:02:33;;;;;;;17.13;8.50;;;14.50;99.90;;;;;;5054530;28;20229;-58
2022/09/10 07:05:00;;;;;;;12.70;8.80;;;14.50;99.90;;;;;;5053755;28;20309;-59
2022/09/10 07:07:27;;;;;;;18.00;8.20;;;14.60;99.90;;;;;;5050811;28;20201;-58
2022/09/10 07:09:55;;;;;;;12.37;8.13;;;14.50;99.90;;;;;;5053899;28;20213;-54
2022/09/10 07:12:22;;;;;;;14.93;8.40;;;14.50;99.90;;;;;;5054791;28;20632;-56
2022/09/10 07:14:48;;;;;;;17.67;8.50;;;14.50;99.90;;;;;;5054379;28;20225;-56
2022/09/10 07:17:15;;;;;;;15.57;8.77;;;14.60;99.90;;;;;;5054288;28;20233;-59
2022/09/10 07:19:42;;;;;;;13.87;8.90;;;14.50;99.90;;;;;;5054324;28;20210;-59
2022/09/10 07:22:08;;;;;;;12.10;8.87;;;14.60;99.90;;;;;;5054016;28;20216;-55
2022/09/10 07:24:35;;;;;;;16.97;9.23;;;14.60;99.90;;;;;;5054337;28;20221;-58
2022/09/10 07:27:03;;;;;;;19.20;9.00;;;14.70;99.90;;;;;;5054633;28;20206;-56
2022/09/10 07:29:30;;;;;;;16.67;10.03;;;14.80;99.90;;;;;;5054626;28;20704;-58
2022/09/10 07:31:57;;;;;;;17.77;10.43;;;15.00;99.90;;;;;;5053907;28;20221;-58
2022/09/10 07:34:24;;;;;;;18.20;10.97;;;15.10;99.90;;;;;;5054462;28;20216;-57
2022/09/10 07:36:50;;;;;;;14.67;10.43;;;15.10;99.90;;;;;;5053867;28;20233;-58
2022/09/10 07:39:17;;;;;;;15.67;10.60;;;15.30;99.90;;;;;;5054494;28;20209;-56
2022/09/10 07:41:45;;;;;;;13.47;9.90;;;15.30;99.90;;;;;;5054037;28;20218;-59
2022/09/10 07:44:13;;;;;;;14.00;9.60;;;15.30;99.90;;;;;;5054320;28;20271;-59
2022/09/10 07:46:40;;;;;;;13.03;8.83;;;15.30;99.90;;;;;;5054112;28;20206;-59
2022/09/10 07:49:08;;;;;;;12.77;8.60;;;15.30;99.90;;;;;;5054033;28;20210;-59
2022/09/10 07:51:35;;;;;;;16.07;8.37;;;15.30;99.90;;;;;;5054287;28;20218;-58
2022/09/10 07:54:02;;;;;;;13.37;8.60;;;15.20;99.90;;;;;;5054161;28;20236;-59
2022/09/10 07:56:31;;;;;;;11.10;8.07;;;15.20;99.90;;;;;;5054199;28;20230;-60
2022/09/10 07:58:57;;;;;;;10.90;8.63;;;15.20;99.90;;;;;;5053796;28;20692;-58
2022/09/10 08:01:25;;;;;;;13.00;9.10;;;15.20;99.90;;;;;;5053929;28;20202;-59
2022/09/10 08:03:56;;;;;;;15.77;8.53;;;15.20;99.90;;;;;;5053711;28;20632;-59
2022/09/10 08:06:22;;;;;;;12.33;7.40;;;15.30;99.90;;;;;;5053676;28;20340;-61
2022/09/10 08:08:49;;;;;;;15.57;8.50;;;15.30;99.90;;;;;;5053988;28;20202;-59
2022/09/10 08:11:17;;;;;;;11.77;8.03;;;15.40;99.90;;;;;;5052721;28;20205;-57
2022/09/10 08:13:46;;;;;;;12.50;8.40;;;15.40;99.90;;;;;;5053770;28;20745;-59
2022/09/10 08:16:15;;;;;;;13.00;9.00;;;15.50;99.90;;;;;;5053174;28;20287;-56
2022/09/10 08:18:43;;;;;;;12.13;8.07;;;15.40;99.90;;;;;;5053786;28;20221;-56
2022/09/10 08:21:10;;;;;;;10.73;7.73;;;15.50;99.90;;;;;;5053360;28;20202;-57
2022/09/10 08:23:38;;;;;;;10.47;7.63;;;15.60;99.90;;;;;;5053658;28;20218;-55
2022/09/10 08:26:07;;;;;;;10.20;7.87;;;15.70;99.90;;;;;;5053471;28;20257;-57
2022/09/10 08:28:34;;;;;;;13.03;8.53;;;15.70;99.90;;;;;;5053392;28;20214;-56
2022/09/10 08:31:02;;;;;;;8.17;7.27;;;15.70;99.90;;;;;;5053182;28;20213;-58
2022/09/10 08:33:30;;;;;;;10.10;7.70;;;15.80;99.90;;;;;;5053625;28;20206;-53
2022/09/10 08:35:59;;;;;;;9.97;7.60;;;15.80;99.90;;;;;;5053349;28;20317;-56
2022/09/10 08:38:28;;;;;;;10.10;7.20;;;15.90;99.90;;;;;;5053151;28;20222;-58
2022/09/10 08:40:56;;;;;;;10.20;7.90;;;15.80;99.90;;;;;;5052886;28;20209;-57
2022/09/10 08:43:31;;;;;;;13.00;8.00;;;15.70;99.90;;;;;;5053083;28;20672;-51
2022/09/10 08:46:00;;;;;;;8.30;6.80;;;15.70;99.90;;;;;;5053191;28;20225;-53
2022/09/10 08:48:31;;;;;;;9.93;7.57;;;15.70;99.90;;;;;;5053121;28;20241;-56
2022/09/10 08:51:03;;;;;;;11.90;7.07;;;15.60;99.90;;;;;;5052962;28;20206;-53
2022/09/10 08:53:36;;;;;;;8.23;7.33;;;15.60;99.90;;;;;;5053078;28;20267;-52
2022/09/10 08:56:11;;;;;;;11.10;8.93;;;15.60;99.90;;;;;;5052819;28;20222;-52
2022/09/10 08:58:43;;;;;;;11.53;8.13;;;15.60;99.90;;;;;;5052881;28;20220;-53
2022/09/10 09:01:17;;;;;;;13.00;8.60;;;15.80;99.90;;;;;;5052161;28;20205;-53
2022/09/10 09:03:46;;;;;;;11.37;7.90;;;15.80;99.90;;;;;;5052867;28;20208;-54
2022/09/10 09:06:24;;;;;;;15.60;8.97;;;15.90;99.90;;;;;;5052289;28;20241;-57
2022/09/10 09:08:52;;;;;;;11.60;8.27;;;15.90;99.90;;;;;;5052826;28;20205;-58
2022/09/10 09:11:26;;;;;;;13.77;9.07;;;15.90;99.90;;;;;;5053052;28;20590;-59
2022/09/10 09:14:15;;;;;;;16.20;8.57;;;15.90;99.90;;;;;;5052871;28;20279;-59
2022/09/10 09:16:59;;;;;;;12.60;8.37;;;15.90;99.90;;;;;;5049279;28;20232;-59
2022/09/10 09:19:32;;;;;;;11.70;8.97;;;16.10;99.90;;;;;;5052205;28;20229;-59
2022/09/10 09:22:08;;;;;;;11.20;7.93;;;16.20;99.90;;;;;;5052246;28;20205;-59
2022/09/10 09:24:48;;;;;;;9.57;6.80;;;16.20;99.90;;;;;;5052431;28;20674;-56
2022/09/10 09:27:18;;;;;;;11.93;7.97;;;16.20;99.90;;;;;;5051916;28;20205;-58
2022/09/10 09:29:51;;;;;;;10.73;7.57;;;16.10;99.90;;;;;;5052460;28;20206;-57
2022/09/10 09:32:20;;;;;;;10.80;7.23;;;16.20;99.90;;;;;;5052142;28;20209;-55
2022/09/10 09:34:49;;;;;;;9.43;7.47;;;16.30;99.90;;;;;;5052286;28;20230;-59
2022/09/10 09:37:22;;;;;;;11.87;7.97;;;16.50;99.90;;;;;;5051806;28;20211;-55
2022/09/10 09:40:04;;;;;;;11.40;6.80;;;16.60;99.90;;;;;;5051598;28;20316;-57
2022/09/10 09:42:40;;;;;;;9.23;7.17;;;16.60;99.90;;;;;;5051851;28;20206;-59
2022/09/10 09:45:20;;;;;;;10.33;6.77;;;16.80;99.90;;;;;;5054219;28;20231;-60
2022/09/10 09:47:48;;;;;;;13.93;7.43;;;16.90;99.90;;;;;;5057488;28;20205;-60
2022/09/10 09:50:17;;;;;;;9.13;6.40;;;16.80;99.90;;;;;;5055142;28;20213;-60
2022/09/10 09:52:45;;;;;;;13.00;6.33;;;16.90;99.90;;;;;;5051917;28;20227;-61
2022/09/10 09:55:22;;;;;;;6.67;5.83;;;16.80;99.90;;;;;;5051597;28;20279;-54
2022/09/10 09:58:13;;;;;;;8.20;6.17;;;16.70;99.90;;;;;;5051637;28;20221;-57
2022/09/10 10:00:39;;;;;;;10.80;6.20;;;16.50;99.90;;;;;;5051128;28;20311;-56
2022/09/10 10:03:15;;;;;;;8.67;6.93;;;16.30;99.90;;;;;;5051622;28;20255;-62
2022/09/10 10:05:42;;;;;;;10.50;6.17;;;16.20;99.90;;;;;;5051459;28;20268;-61
2022/09/10 10:08:29;;;;;;;10.30;6.90;;;16.10;99.90;;;;;;5051319;28;20569;-51
2022/09/10 10:10:57;;;;;;;8.20;6.23;;;15.90;99.90;;;;;;5051042;28;20259;-56
2022/09/10 10:13:24;;;;;;;10.50;5.83;;;15.80;99.90;;;;;;5051591;28;20334;-57
2022/09/10 10:15:51;;;;;;;8.97;6.73;;;15.60;99.90;;;;;;5050790;28;20271;-60
2022/09/10 10:18:30;;;;;;;10.80;6.70;;;15.40;99.90;;;;;;5050867;28;20225;-59
2022/09/10 10:21:22;;;;;;;9.13;6.23;;;15.40;99.90;;;;;;5051090;28;20212;-61
2022/09/10 10:23:50;;;;;;;10.00;6.87;;;15.40;99.90;;;;;;5036429;28;20214;-61
2022/09/10 10:26:27;;;;;;;9.03;6.47;;;15.40;99.90;;;;;;5050828;28;20222;-59
2022/09/10 10:28:58;;;;;;;9.23;6.67;;;15.40;99.90;;;;;;5051326;28;20211;-58
2022/09/10 10:31:34;;;;;;;7.10;6.40;;;15.50;99.90;;;;;;5051013;28;20205;-60
2022/09/10 10:34:19;;;;;;;9.37;6.93;;;15.50;99.90;;;;;;5050444;28;20212;-60
2022/09/10 10:37:03;;;;;;;8.40;7.20;;;15.50;99.90;;;;;;5051264;28;20600;-60
2022/09/10 10:39:48;;;;;;;9.17;7.50;;;15.50;99.90;;;;;;5050929;28;20225;-60
2022/09/10 10:42:21;;;;;;;7.33;6.53;;;15.40;99.90;;;;;;5050551;28;20208;-57
2022/09/10 10:45:01;;;;;;;9.20;6.70;;;15.30;99.90;;;;;;5050586;28;20244;-60
2022/09/10 10:47:38;;;;;;;10.90;6.90;;;15.30;99.90;;;;;;5050989;28;20210;-61
2022/09/10 10:50:18;;;;;;;8.37;6.70;;;15.30;99.90;;;;;;5051495;28;20190;-60
2022/09/10 10:52:58;;;;;;;10.10;7.00;;;15.30;99.90;;;;;;5050977;28;20220;-59
2022/09/10 10:55:32;;;;;;;8.27;6.37;;;15.50;99.90;;;;;;5051241;28;20226;-60
2022/09/10 10:58:15;;;;;;;9.77;6.93;;;15.50;99.90;;;;;;5050722;28;20294;-61
2022/09/10 11:00:47;;;;;;;6.77;5.53;;;15.50;99.90;;;;;;5050913;28;20252;-60
2022/09/10 11:03:21;;;;;;;7.60;5.60;;;15.50;99.90;;;;;;5050766;28;20544;-62
2022/09/10 11:05:52;;;;;;;6.43;5.73;;;15.50;99.90;;;;;;5050739;28;20718;-63
2022/09/10 11:08:26;;;;;;;8.50;6.57;;;15.20;99.90;;;;;;5050883;28;20624;-61
2022/09/10 11:10:59;;;;;;;9.57;7.17;;;15.30;99.90;;;;;;5050676;28;20206;-59
2022/09/10 11:13:31;;;;;;;10.77;7.30;;;15.50;99.90;;;;;;5050648;28;20202;-61
2022/09/10 11:16:04;;;;;;;10.00;8.30;;;15.70;99.90;;;;;;5050626;28;20231;-60
2022/09/10 11:18:34;;;;;;;12.83;8.93;;;15.80;99.90;;;;;;5050938;28;20257;-60
2022/09/10 11:21:10;;;;;;;12.53;9.70;;;16.00;99.90;;;;;;5050606;28;20202;-61
2022/09/10 11:23:44;;;;;;;10.37;9.20;;;16.10;99.90;;;;;;5050782;28;20215;-61
2022/09/10 11:26:18;;;;;;;10.10;8.13;;;16.30;99.90;;;;;;5050251;28;20722;-62
2022/09/10 11:28:53;;;;;;;10.30;7.43;;;16.30;99.90;;;;;;5050808;28;20621;-61
2022/09/10 11:31:30;;;;;;;10.90;6.93;;;16.10;99.90;;;;;;5050503;28;20253;-61
2022/09/10 11:34:03;;;;;;;7.60;6.63;;;16.10;99.90;;;;;;5050812;28;20209;-62
2022/09/10 11:36:33;;;;;;;7.50;6.70;;;16.10;99.90;;;;;;5049962;28;20225;-61
2022/09/10 11:39:08;;;;;;;10.73;7.20;;;16.20;99.90;;;;;;5050626;28;20287;-61
2022/09/10 11:41:41;;;;;;;10.70;7.80;;;16.40;99.90;;;;;;5050327;28;20614;-61
2022/09/10 11:44:21;;;;;;;9.33;8.33;;;16.60;99.90;;;;;;5050758;28;20209;-60
2022/09/10 11:46:58;;;;;;;9.63;8.10;;;17.00;99.90;;;;;;5052949;28;20255;-60
2022/09/10 11:49:36;;;;;;;10.10;8.40;;;17.30;99.90;;;;;;5054291;28;20205;-60
2022/09/10 11:52:03;;;;;;;11.40;8.80;;;17.50;99.90;;;;;;5053964;28;20211;-60
2022/09/10 11:54:33;;;;;;;10.77;8.93;;;17.70;99.90;;;;;;5053734;28;20302;-60
2022/09/10 11:57:09;;;;;;;10.27;8.70;;;17.80;99.90;;;;;;5053878;28;20209;-60
2022/09/10 11:59:55;;;;;;;10.67;8.90;;;17.90;99.90;;;;;;5053938;28;20232;-60
2022/09/10 12:02:47;;;;;;;11.40;8.90;;;17.80;99.90;;;;;;5053635;28;20209;-60
2022/09/10 12:05:22;;;;;;;13.20;8.30;;;17.80;99.90;;;;;;5022695;28;20598;-57
2022/09/10 12:07:57;;;;;;;12.93;9.17;;;17.60;99.90;;;;;;5053747;28;20226;-56
2022/09/10 12:10:31;;;;;;;13.03;8.80;;;17.40;99.90;;;;;;5053849;28;20201;-59
2022/09/10 12:13:00;;;;;;;13.03;9.00;;;17.40;99.90;;;;;;5053996;28;20295;-59
2022/09/10 12:15:29;;;;;;;12.03;9.10;;;17.30;99.90;;;;;;5053666;28;20226;-58
2022/09/10 12:18:01;;;;;;;11.20;8.43;;;17.50;99.90;;;;;;5053155;28;20637;-59
2022/09/10 12:20:31;;;;;;;11.63;8.47;;;17.50;99.90;;;;;;5053455;28;20228;-59
2022/09/10 12:22:58;;;;;;;11.57;9.40;;;17.50;99.90;;;;;;5053413;28;20278;-59
2022/09/10 12:25:28;;;;;;;15.83;9.43;;;17.50;99.90;;;;;;5053635;28;20298;-58
2022/09/10 12:27:57;;;;;;;14.17;10.23;;;17.40;99.90;;;;;;5053032;28;20209;-58
2022/09/10 12:31:03;;;;;;;14.60;9.90;;;17.40;99.90;;;;;;5053245;28;20202;-57
2022/09/10 12:34:10;;;;;;;14.73;10.30;;;17.50;99.90;;;;;;5053400;28;20251;-58
2022/09/10 12:37:19;;;;;;;14.60;10.80;;;17.40;99.90;;;;;;5052950;28;20202;-59
2022/09/10 12:39:47;;;;;;;14.17;10.63;;;17.30;99.90;;;;;;5010914;28;20229;-59
2022/09/10 12:42:27;;;;;;;15.50;11.53;;;17.10;99.90;;;;;;5010900;28;20225;-58
2022/09/10 12:44:55;;;;;;;17.77;11.40;;;17.10;99.90;;;;;;5021789;28;20225;-63
2022/09/10 12:47:49;;;;;;;13.93;11.40;;;17.10;99.90;;;;;;5052958;28;20214;-63
2022/09/10 12:50:37;;;;;;;15.73;12.00;;;17.10;99.90;;;;;;5052950;28;20253;-61
2022/09/10 12:53:51;;;;;;;17.63;11.63;;;17.00;99.90;;;;;;5052522;28;20696;-61
2022/09/10 12:57:03;;;;;;;15.20;13.00;;;17.00;99.90;;;;;;5029709;28;20281;-62
2022/09/10 12:59:53;;;;;;;19.33;13.47;;;16.80;99.90;;;;;;4952299;29;20316;-62